createdAt,value
2023-05-02T00:01:13.988Z,99441.13
2023-05-02T00:03:51.264Z,99436.88
2023-05-02T00:06:26.015Z,99437.25
2023-05-02T00:08:55.484Z,99442.75
2023-05-02T00:11:24.683Z,99439.53
2023-05-02T00:13:54.974Z,99441.91
2023-05-02T00:16:25.190Z,99449.06
2023-05-02T00:18:55.656Z,99455.81
2023-05-02T00:21:29.336Z,99440.09
2023-05-02T00:24:02.505Z,99451.75
2023-05-02T00:26:34.993Z,99452.75
2023-05-02T00:29:03.901Z,99444.97
2023-05-02T00:31:32.512Z,99447.88
2023-05-02T00:34:13.683Z,99450.47
2023-05-02T00:36:49.298Z,99452.97
2023-05-02T00:39:20.237Z,99447.47
2023-05-02T00:41:48.457Z,99445.94
2023-05-02T00:44:18.014Z,99441.94
2023-05-02T00:46:47.603Z,99444.56
2023-05-02T00:49:18.899Z,99446.97
2023-05-02T00:52:02.616Z,99441.63
2023-05-02T00:54:32.286Z,99454.56
2023-05-02T00:57:00.409Z,99453.66
2023-05-02T00:59:42.858Z,99457.38
2023-05-02T01:02:32.757Z,99464.06
2023-05-02T01:05:13.491Z,99461.88
2023-05-02T01:08:05.964Z,99465.13
2023-05-02T01:10:47.557Z,99464.22
2023-05-02T01:13:28.216Z,99472.16
2023-05-02T01:16:02.776Z,99473.97
2023-05-02T01:18:34.656Z,99469.69
2023-05-02T01:21:09.854Z,99469.66
2023-05-02T01:23:50.263Z,99468.81
2023-05-02T01:26:28.812Z,99473.53
2023-05-02T01:29:16.155Z,99472.00
2023-05-02T01:31:50.653Z,99475.75
2023-05-02T01:34:21.768Z,99475.41
2023-05-02T01:36:51.874Z,99472.88
2023-05-02T01:39:22.762Z,99469.19
2023-05-02T01:42:13.252Z,99473.34
2023-05-02T01:44:47.139Z,99474.56
2023-05-02T01:47:18.768Z,99480.94
2023-05-02T01:49:53.531Z,99484.31
2023-05-02T01:52:25.773Z,99483.63
2023-05-02T01:54:57.793Z,99481.41
2023-05-02T01:57:29.210Z,99487.84
2023-05-02T02:00:04.342Z,99490.03
2023-05-02T02:02:56.609Z,99486.19
2023-05-02T02:05:28.538Z,99497.94
2023-05-02T02:07:56.611Z,99495.66
2023-05-02T02:10:28.901Z,99486.53
2023-05-02T02:13:09.134Z,99507.63
2023-05-02T02:15:39.965Z,99498.00
2023-05-02T02:18:12.084Z,99502.16
2023-05-02T02:20:47.399Z,99493.84
2023-05-02T02:23:19.642Z,99494.53
2023-05-02T02:25:51.237Z,99497.44
2023-05-02T02:28:23.406Z,99498.69
2023-05-02T02:31:00.425Z,99487.72
2023-05-02T02:33:41.909Z,99483.03
2023-05-02T02:36:18.547Z,99486.69
2023-05-02T02:39:01.552Z,99486.19
2023-05-02T02:41:39.450Z,99493.03
2023-05-02T02:44:25.064Z,99496.06
2023-05-02T02:47:06.021Z,99492.41
2023-05-02T02:49:44.400Z,99494.53
2023-05-02T02:52:20.134Z,99499.44
2023-05-02T02:54:52.849Z,99499.91
2023-05-02T02:57:37.010Z,99498.59
2023-05-02T03:00:13.242Z,99497.91
2023-05-02T03:02:48.444Z,99502.06
2023-05-02T03:05:30.660Z,99499.56
2023-05-02T03:08:06.353Z,99511.81
2023-05-02T03:10:38.297Z,99507.69
2023-05-02T03:13:09.531Z,99513.19
2023-05-02T03:16:16.479Z,99508.88
2023-05-02T03:18:57.716Z,99516.59
2023-05-02T03:21:31.722Z,99523.97
2023-05-02T03:24:06.886Z,99522.13
2023-05-02T03:26:39.006Z,99524.34
2023-05-02T03:29:13.083Z,99526.50
2023-05-02T03:31:46.671Z,99524.69
2023-05-02T03:34:22.340Z,99534.06
2023-05-02T03:36:54.683Z,99527.88
2023-05-02T03:39:26.036Z,99535.59
2023-05-02T03:41:57.750Z,99540.47
2023-05-02T03:44:35.628Z,99540.31
2023-05-02T03:47:11.999Z,99536.94
2023-05-02T03:49:47.879Z,99542.81
2023-05-02T03:52:28.592Z,99550.38
2023-05-02T03:55:00.098Z,99542.00
2023-05-02T03:57:33.969Z,99557.41
2023-05-02T04:00:05.974Z,99552.22
2023-05-02T04:02:43.511Z,99555.91
2023-05-02T04:05:18.310Z,99561.44
2023-05-02T04:07:50.001Z,99553.22
2023-05-02T04:10:22.727Z,99560.78
2023-05-02T04:13:05.428Z,99564.44
2023-05-02T04:15:44.171Z,99568.13
2023-05-02T04:18:19.436Z,99576.72
2023-05-02T04:20:52.778Z,99579.06
2023-05-02T04:23:28.107Z,99575.22
2023-05-02T04:26:01.883Z,99574.88
2023-05-02T04:28:51.500Z,99575.69
2023-05-02T04:31:23.382Z,99583.91
2023-05-02T04:33:56.152Z,99582.75
2023-05-02T04:36:32.831Z,99584.63
2023-05-02T04:39:07.810Z,99582.25
2023-05-02T04:41:51.996Z,99581.75
2023-05-02T04:44:29.935Z,99592.31
2023-05-02T04:47:02.059Z,99593.31
2023-05-02T04:49:32.869Z,99602.06
2023-05-02T04:52:11.725Z,99604.56
2023-05-02T04:54:48.854Z,99606.91
2023-05-02T04:57:23.338Z,99612.25
2023-05-02T04:59:59.179Z,99607.25
2023-05-02T05:02:29.832Z,99613.47
2023-05-02T05:05:13.854Z,99613.63
2023-05-02T05:07:47.845Z,99612.75
2023-05-02T05:10:27.556Z,99604.25
2023-05-02T05:12:58.030Z,99617.81
2023-05-02T05:15:27.493Z,99628.38
2023-05-02T05:18:04.905Z,99635.78
2023-05-02T05:20:35.147Z,99635.09
2023-05-02T05:23:08.411Z,99635.44
2023-05-02T05:25:45.529Z,99638.13
2023-05-02T05:28:18.978Z,99639.66
2023-05-02T05:30:57.719Z,99631.53
2023-05-02T05:33:29.454Z,99644.59
2023-05-02T05:36:08.041Z,99639.63
2023-05-02T05:38:54.005Z,99651.88
2023-05-02T05:41:24.941Z,99645.84
2023-05-02T05:44:09.494Z,99645.28
2023-05-02T05:46:41.213Z,99639.75
2023-05-02T05:49:15.625Z,99653.69
2023-05-02T05:51:44.638Z,99653.06
2023-05-02T05:54:19.456Z,99660.22
2023-05-02T05:56:51.426Z,99658.91
2023-05-02T05:59:25.304Z,99669.31
2023-05-02T06:02:02.381Z,99671.59
2023-05-02T06:04:33.537Z,99680.25
2023-05-02T06:07:07.855Z,99667.56
2023-05-02T06:09:42.212Z,99675.16
2023-05-02T06:12:21.861Z,99669.97
2023-05-02T06:14:57.176Z,99677.13
2023-05-02T06:17:31.209Z,99667.72
2023-05-02T06:20:00.511Z,99665.28
2023-05-02T06:22:31.473Z,99671.16
2023-05-02T06:25:02.165Z,99667.84
2023-05-02T06:27:32.302Z,99668.41
2023-05-02T06:30:04.316Z,99670.22
2023-05-02T06:32:44.445Z,99680.69
2023-05-02T06:35:12.998Z,99679.09
2023-05-02T06:37:42.325Z,99680.19
2023-05-02T06:40:16.143Z,99692.97
2023-05-02T06:42:54.227Z,99688.50
2023-05-02T06:45:23.258Z,99698.53
2023-05-02T06:47:52.765Z,99697.69
2023-05-02T06:50:22.068Z,99704.13
2023-05-02T06:52:51.649Z,99701.59
2023-05-02T06:55:21.409Z,99703.22
2023-05-02T06:57:53.045Z,99695.53
2023-05-02T07:00:22.282Z,99699.72
2023-05-02T07:03:00.714Z,99692.38
2023-05-02T07:05:29.345Z,99692.91
2023-05-02T07:07:57.373Z,99697.31
2023-05-02T07:10:29.145Z,99701.63
2023-05-02T07:13:00.013Z,99697.94
2023-05-02T07:15:28.901Z,99700.22
2023-05-02T07:17:57.475Z,99708.13
2023-05-02T07:20:30.120Z,99710.88
2023-05-02T07:22:59.412Z,99712.94
2023-05-02T07:25:31.640Z,99714.28
2023-05-02T07:28:03.612Z,99717.19
2023-05-02T07:30:37.527Z,99712.47
2023-05-02T07:33:05.590Z,99711.59
2023-05-02T07:35:36.676Z,99717.06
2023-05-02T07:38:07.425Z,99721.81
2023-05-02T07:40:39.504Z,99721.94
2023-05-02T07:43:11.021Z,99733.50
2023-05-02T07:45:56.340Z,99735.38
2023-05-02T07:48:27.885Z,99733.69
2023-05-02T07:50:57.280Z,99740.94
2023-05-02T07:53:28.997Z,99737.81
2023-05-02T07:56:01.161Z,99735.03
2023-05-02T07:58:30.739Z,99743.88
2023-05-02T08:01:04.151Z,99753.28
2023-05-02T08:03:34.708Z,99756.44
2023-05-02T08:06:04.629Z,99754.47
2023-05-02T08:08:32.711Z,99752.28
2023-05-02T08:11:06.669Z,99752.91
2023-05-02T08:13:36.104Z,99755.03
2023-05-02T08:16:08.890Z,99749.09
2023-05-02T08:18:37.042Z,99763.41
2023-05-02T08:21:11.009Z,99768.84
2023-05-02T08:23:47.353Z,99775.81
2023-05-02T08:26:24.825Z,99768.47
2023-05-02T08:28:54.841Z,99769.38
2023-05-02T08:31:28.719Z,99771.66
2023-05-02T08:34:00.659Z,99773.22
2023-05-02T08:36:31.420Z,99771.19
2023-05-02T08:39:07.428Z,99769.28
2023-05-02T08:41:45.177Z,99769.69
2023-05-02T08:44:16.972Z,99774.63
2023-05-02T08:46:45.261Z,99774.31
2023-05-02T08:49:23.842Z,99771.66
2023-05-02T08:51:54.837Z,99773.34
2023-05-02T08:54:27.296Z,99776.66
2023-05-02T08:57:04.484Z,99779.94
2023-05-02T08:59:35.071Z,99771.66
2023-05-02T09:02:12.107Z,99779.38
2023-05-02T09:04:44.699Z,99778.72
2023-05-02T09:07:18.668Z,99766.25
2023-05-02T09:09:48.462Z,99754.53
2023-05-02T09:12:27.632Z,99752.75
2023-05-02T09:15:14.892Z,99765.50
2023-05-02T09:17:44.201Z,99760.16
2023-05-02T09:20:16.102Z,99761.19
2023-05-02T09:22:51.140Z,99774.66
2023-05-02T09:25:26.743Z,99769.31
2023-05-02T09:28:04.309Z,99781.63
2023-05-02T09:30:36.608Z,99775.91
2023-05-02T09:33:14.707Z,99774.00
2023-05-02T09:35:57.680Z,99779.09
2023-05-02T09:38:27.437Z,99782.00
2023-05-02T09:41:00.180Z,99774.63
2023-05-02T09:43:38.274Z,99782.34
2023-05-02T09:46:16.994Z,99792.28
2023-05-02T09:48:54.759Z,99792.13
2023-05-02T09:51:46.647Z,99791.31
2023-05-02T09:54:16.407Z,99786.88
2023-05-02T09:56:57.525Z,99796.03
2023-05-02T09:59:27.535Z,99800.75
2023-05-02T10:01:58.319Z,99799.66
2023-05-02T10:04:28.634Z,99788.22
2023-05-02T10:07:05.730Z,99809.75
2023-05-02T10:09:37.533Z,99809.53
2023-05-02T10:12:08.635Z,99805.22
2023-05-02T10:14:44.605Z,99805.78
2023-05-02T10:17:16.549Z,99804.34
2023-05-02T10:19:58.979Z,99800.66
2023-05-02T10:22:37.169Z,99808.25
2023-05-02T10:25:06.251Z,99800.16
2023-05-02T10:27:37.816Z,99803.19
2023-05-02T10:30:11.014Z,99792.88
2023-05-02T10:32:40.875Z,99804.38
2023-05-02T10:35:17.099Z,99800.34
2023-05-02T10:37:49.657Z,99802.75
2023-05-02T10:40:20.484Z,99805.56
2023-05-02T10:43:00.527Z,99804.41
2023-05-02T10:45:37.678Z,99808.69
2023-05-02T10:48:30.224Z,99813.78
2023-05-02T10:51:02.874Z,99815.09
2023-05-02T10:53:38.940Z,99807.78
2023-05-02T10:56:29.820Z,99826.66
2023-05-02T10:59:30.994Z,99815.50
2023-05-02T11:02:05.282Z,99817.13
2023-05-02T11:05:13.678Z,99817.19
2023-05-02T11:07:48.042Z,99815.72
2023-05-02T11:10:29.302Z,99815.53
2023-05-02T11:13:01.315Z,99806.38
2023-05-02T11:16:01.761Z,99819.44
2023-05-02T11:19:03.056Z,99826.78
2023-05-02T11:21:33.207Z,99824.44
2023-05-02T11:24:38.995Z,99825.63
2023-05-02T11:27:43.963Z,99830.78
2023-05-02T11:30:13.768Z,99825.72
2023-05-02T11:33:20.097Z,99830.53
2023-05-02T11:35:53.007Z,99827.88
2023-05-02T11:38:24.632Z,99822.06
2023-05-02T11:41:06.349Z,99831.25
2023-05-02T11:46:29.343Z,99807.88
2023-05-02T11:48:59.005Z,99813.03
2023-05-02T11:51:32.247Z,99823.63
2023-05-02T11:54:06.376Z,99825.78
2023-05-02T11:56:36.014Z,99822.34
2023-05-02T11:59:14.438Z,99827.59
2023-05-02T12:01:49.946Z,99825.97
2023-05-02T12:04:23.895Z,99817.38
2023-05-02T12:07:05.059Z,99822.38
2023-05-02T12:09:37.386Z,99821.38
2023-05-02T12:12:07.762Z,99831.44
2023-05-02T12:14:41.198Z,99809.13
2023-05-02T12:17:10.623Z,99812.44
2023-05-02T12:19:41.860Z,99821.28
2023-05-02T12:22:18.863Z,99816.25
2023-05-02T12:24:49.298Z,99824.50
2023-05-02T12:27:21.485Z,99823.16
2023-05-02T12:29:54.115Z,99828.81
2023-05-02T12:32:30.288Z,99826.38
2023-05-02T12:35:02.226Z,99819.91
2023-05-02T12:37:33.932Z,99820.59
2023-05-02T12:40:02.494Z,99834.38
2023-05-02T12:42:35.076Z,99816.94
2023-05-02T12:45:08.473Z,99824.88
2023-05-02T12:47:49.854Z,99829.81
2023-05-02T12:50:24.827Z,99819.31
2023-05-02T12:52:59.307Z,99828.16
2023-05-02T12:55:34.532Z,99832.97
2023-05-02T12:58:03.820Z,99834.25
2023-05-02T13:00:33.199Z,99837.59
2023-05-02T13:03:04.090Z,99840.19
2023-05-02T13:05:33.722Z,99847.94
2023-05-02T13:08:10.473Z,99845.22
2023-05-02T13:10:46.626Z,99840.69
2023-05-02T13:13:26.570Z,99842.69
2023-05-02T13:15:56.425Z,99848.97
2023-05-02T13:18:28.121Z,99845.94
2023-05-02T13:20:56.386Z,99847.63
2023-05-02T13:23:26.367Z,99840.53
2023-05-02T13:26:00.589Z,99840.88
2023-05-02T13:28:35.955Z,99855.97
2023-05-02T13:31:05.321Z,99860.31
2023-05-02T13:33:35.619Z,99849.03
2023-05-02T13:36:06.544Z,99856.88
2023-05-02T13:38:45.868Z,99853.63
2023-05-02T13:41:15.454Z,99861.16
2023-05-02T13:43:46.453Z,99847.59
2023-05-02T13:46:20.871Z,99844.25
2023-05-02T13:49:01.631Z,99844.25
2023-05-02T13:51:44.040Z,99835.50
2023-05-02T13:54:17.089Z,99836.66
2023-05-02T13:56:46.760Z,99844.19
2023-05-02T13:59:17.127Z,99852.88
2023-05-02T14:01:47.633Z,99853.72
2023-05-02T14:04:20.938Z,99847.53
2023-05-02T14:06:51.753Z,99846.59
2023-05-02T14:09:26.681Z,99857.84
2023-05-02T14:12:04.091Z,99857.44
2023-05-02T14:14:33.752Z,99866.09
2023-05-02T14:17:06.364Z,99855.84
2023-05-02T14:19:36.605Z,99850.97
2023-05-02T14:22:08.619Z,99859.66
2023-05-02T14:24:41.510Z,99875.84
2023-05-02T14:27:14.077Z,99857.16
2023-05-02T14:29:43.532Z,99857.84
2023-05-02T14:32:13.231Z,99856.47
2023-05-02T14:34:50.734Z,99849.59
2023-05-02T14:37:24.258Z,99858.66
2023-05-02T14:39:56.785Z,99854.63
2023-05-02T14:42:28.320Z,99858.41
2023-05-02T14:45:04.680Z,99854.34
2023-05-02T14:47:34.077Z,99860.25
2023-05-02T14:50:05.379Z,99870.00
2023-05-02T14:52:40.269Z,99856.88
2023-05-02T14:55:14.416Z,99862.09
2023-05-02T14:57:45.604Z,99848.97
2023-05-02T15:00:16.480Z,99858.38
2023-05-02T15:02:53.931Z,99855.38
2023-05-02T15:05:25.588Z,99869.47
2023-05-02T15:07:56.557Z,99855.16
2023-05-02T15:10:40.554Z,99854.19
2023-05-02T15:13:08.981Z,99858.69
2023-05-02T15:15:38.780Z,99853.66
2023-05-02T15:18:10.494Z,99859.88
2023-05-02T15:20:49.528Z,99850.66
2023-05-02T15:23:20.134Z,99855.84
2023-05-02T15:25:51.662Z,99864.44
2023-05-02T15:28:20.224Z,99851.47
2023-05-02T15:30:52.511Z,99857.91
2023-05-02T15:33:22.012Z,99853.84
2023-05-02T15:36:02.548Z,99847.28
2023-05-02T15:38:38.713Z,99856.88
2023-05-02T15:41:20.255Z,99862.59
2023-05-02T15:43:50.679Z,99843.06
2023-05-02T15:46:20.531Z,99874.56
2023-05-02T15:48:51.221Z,99840.75
2023-05-02T15:51:21.606Z,99854.19
2023-05-02T15:53:55.665Z,99849.00
2023-05-02T15:56:26.612Z,99844.78
2023-05-02T15:59:04.382Z,99846.31
2023-05-02T16:01:32.739Z,99843.44
2023-05-02T16:04:06.327Z,99847.97
2023-05-02T16:06:37.291Z,99860.59
2023-05-02T16:09:11.078Z,99848.66
2023-05-02T16:11:47.015Z,99845.47
2023-05-02T16:14:18.662Z,99849.50
2023-05-02T16:16:46.998Z,99842.13
2023-05-02T16:19:15.348Z,99842.13
2023-05-02T16:21:43.703Z,99845.63
2023-05-02T16:24:20.204Z,99860.94
2023-05-02T16:27:07.724Z,99837.75
2023-05-02T16:29:41.148Z,99857.44
2023-05-02T16:32:10.102Z,99846.16
2023-05-02T16:34:41.740Z,99853.19
2023-05-02T16:37:16.380Z,99852.03
2023-05-02T16:39:51.902Z,99851.88
2023-05-02T16:42:32.850Z,99858.25
2023-05-02T16:45:06.658Z,99868.69
2023-05-02T16:47:38.575Z,99875.34
2023-05-02T16:50:08.198Z,99872.88
2023-05-02T16:52:42.088Z,99872.34
2023-05-02T16:55:13.905Z,99870.88
2023-05-02T16:57:45.084Z,99868.66
2023-05-02T17:00:17.752Z,99881.63
2023-05-02T17:02:48.056Z,99886.84
2023-05-02T17:05:27.458Z,99887.31
2023-05-02T17:08:00.135Z,99884.13
2023-05-02T17:10:31.593Z,99887.81
2023-05-02T17:13:18.188Z,99893.50
2023-05-02T17:15:49.618Z,99899.09
2023-05-02T17:18:33.163Z,99895.56
2023-05-02T17:21:04.057Z,99906.47
2023-05-02T17:23:42.066Z,99910.16
2023-05-02T17:26:16.852Z,99913.53
2023-05-02T17:29:07.897Z,99922.38
2023-05-02T17:31:45.778Z,99936.22
2023-05-02T17:34:16.258Z,99941.56
2023-05-02T17:36:50.472Z,99933.50
2023-05-02T17:39:21.033Z,99929.84
2023-05-02T17:41:51.025Z,99935.38
2023-05-02T17:44:36.334Z,99941.72
2023-05-02T17:47:30.294Z,99941.00
2023-05-02T17:50:14.566Z,99940.56
2023-05-02T17:52:47.794Z,99947.75
2023-05-02T17:55:28.361Z,99943.63
2023-05-02T17:58:00.330Z,99942.06
2023-05-02T18:00:40.854Z,99945.94
2023-05-02T18:03:10.786Z,99962.38
2023-05-02T18:05:51.836Z,99956.53
2023-05-02T18:08:24.736Z,99967.91
2023-05-02T18:10:56.583Z,99971.94
2023-05-02T18:13:37.459Z,99981.47
2023-05-02T18:16:13.452Z,99978.56
2023-05-02T18:18:59.835Z,99982.69
2023-05-02T18:21:35.950Z,99980.09
2023-05-02T18:24:07.043Z,99994.75
2023-05-02T18:26:36.015Z,99985.34
2023-05-02T18:29:09.893Z,100007.50
2023-05-02T18:31:59.395Z,99998.97
2023-05-02T18:34:32.879Z,99999.09
2023-05-02T18:37:11.458Z,100013.25
2023-05-02T18:39:42.400Z,100008.41
2023-05-02T18:42:17.530Z,100013.94
2023-05-02T18:44:46.142Z,100009.09
2023-05-02T18:47:18.322Z,100012.88
2023-05-02T18:49:51.026Z,100018.63
2023-05-02T18:52:21.859Z,100012.38
2023-05-02T18:55:09.894Z,100014.38
2023-05-02T18:57:40.680Z,100012.84
2023-05-02T19:00:25.550Z,100017.22
2023-05-02T19:03:00.595Z,100011.78
2023-05-02T19:05:38.327Z,100018.13
2023-05-02T19:08:30.658Z,100024.13
2023-05-02T19:11:00.910Z,100030.38
2023-05-02T19:13:34.116Z,100030.13
2023-05-02T19:16:21.161Z,100036.84
2023-05-02T19:19:14.098Z,100034.88
2023-05-02T19:21:53.658Z,100037.69
2023-05-02T19:24:34.806Z,100037.13
2023-05-02T19:27:12.379Z,100038.16
2023-05-02T19:29:51.859Z,100041.66
2023-05-02T19:32:29.046Z,100050.28
2023-05-02T19:35:04.971Z,100042.34
2023-05-02T19:37:36.897Z,100049.66
2023-05-02T19:40:17.603Z,100054.66
2023-05-02T19:45:44.953Z,100056.97
2023-05-02T19:48:29.904Z,100056.47
2023-05-02T19:51:25.629Z,100054.97
2023-05-02T19:53:58.927Z,100058.44
2023-05-02T19:56:42.151Z,100062.44
2023-05-02T19:59:13.632Z,100063.22
2023-05-02T20:01:44.736Z,100068.88
2023-05-02T20:04:28.094Z,100068.78
2023-05-02T20:07:18.031Z,100063.56
2023-05-02T20:09:57.164Z,100065.13
2023-05-02T20:12:25.925Z,100075.38
2023-05-02T20:14:56.050Z,100079.16
2023-05-02T20:17:26.568Z,100077.75
2023-05-02T20:20:07.675Z,100077.38
2023-05-02T20:22:40.454Z,100079.00
2023-05-02T20:25:15.981Z,100082.63
2023-05-02T20:27:45.351Z,100079.69
2023-05-02T20:30:22.439Z,100079.22
2023-05-02T20:32:53.435Z,100082.91
2023-05-02T20:35:31.472Z,100078.19
2023-05-02T20:38:04.430Z,100079.53
2023-05-02T20:40:42.954Z,100088.13
2023-05-02T20:43:16.064Z,100082.81
2023-05-02T20:45:48.110Z,100092.47
2023-05-02T20:48:19.979Z,100091.72
2023-05-02T20:50:57.202Z,100095.78
2023-05-02T20:53:38.046Z,100091.72
2023-05-02T20:56:08.523Z,100096.38
2023-05-02T20:58:40.461Z,100093.41
2023-05-02T21:01:11.655Z,100098.47
2023-05-02T21:03:49.344Z,100092.03
2023-05-02T21:06:27.496Z,100095.56
2023-05-02T21:09:06.131Z,100098.31
2023-05-02T21:11:36.898Z,100094.25
2023-05-02T21:14:05.253Z,100092.75
2023-05-02T21:16:42.843Z,100102.72
2023-05-02T21:19:15.326Z,100093.19
2023-05-02T21:21:50.797Z,100106.63
2023-05-02T21:24:41.491Z,100101.47
2023-05-02T21:27:12.374Z,100104.81
2023-05-02T21:29:42.032Z,100099.16
2023-05-02T21:32:12.493Z,100098.50
2023-05-02T21:34:47.182Z,100094.22
2023-05-02T21:37:30.394Z,100113.66
2023-05-02T21:40:07.386Z,100112.91
2023-05-02T21:42:39.012Z,100106.31
2023-05-02T21:45:13.620Z,100099.19
2023-05-02T21:47:44.937Z,100105.09
2023-05-02T21:50:14.185Z,100109.13
2023-05-02T21:52:49.190Z,100109.13
2023-05-02T21:55:23.819Z,100106.34
2023-05-02T21:58:02.936Z,100109.03
2023-05-02T22:00:35.602Z,100116.13
2023-05-02T22:03:11.060Z,100108.69
2023-05-02T22:05:42.313Z,100112.53
2023-05-02T22:08:20.526Z,100104.25
2023-05-02T22:10:53.237Z,100114.66
2023-05-02T22:13:24.046Z,100106.59
2023-05-02T22:15:53.161Z,100107.78
2023-05-02T22:18:23.580Z,100110.38
2023-05-02T22:20:52.881Z,100107.69
2023-05-02T22:23:25.894Z,100098.78
2023-05-02T22:26:09.098Z,100102.31
2023-05-02T22:28:37.461Z,100100.53
2023-05-02T22:31:09.360Z,100099.94
2023-05-02T22:33:48.339Z,100096.69
2023-05-02T22:36:20.421Z,100096.91
2023-05-02T22:38:53.225Z,100099.34
2023-05-02T22:41:24.975Z,100102.00
2023-05-02T22:43:58.060Z,100102.13
2023-05-02T22:46:26.907Z,100105.59
2023-05-02T22:48:59.190Z,100103.94
2023-05-02T22:51:33.542Z,100100.47
2023-05-02T22:54:09.393Z,100101.72
2023-05-02T22:56:46.936Z,100095.88
2023-05-02T22:59:19.493Z,100105.25
2023-05-02T23:01:51.471Z,100104.53
2023-05-02T23:04:25.841Z,100100.84
2023-05-02T23:06:58.294Z,100106.63
2023-05-02T23:09:26.710Z,100103.63
2023-05-02T23:11:59.477Z,100104.84
2023-05-02T23:14:27.608Z,100105.09
2023-05-02T23:16:59.314Z,100099.44
2023-05-02T23:19:29.726Z,100098.34
2023-05-02T23:22:00.922Z,100097.84
2023-05-02T23:24:32.664Z,100100.94
2023-05-02T23:27:16.362Z,100099.00
2023-05-02T23:29:46.120Z,100087.31
2023-05-02T23:32:19.100Z,100095.41
2023-05-02T23:34:49.821Z,100089.34
2023-05-02T23:37:18.634Z,100091.97
2023-05-02T23:39:50.965Z,100101.22
2023-05-02T23:42:25.794Z,100097.84
2023-05-02T23:44:59.991Z,100092.41
2023-05-02T23:47:33.925Z,100101.41
2023-05-02T23:50:03.399Z,100100.94
2023-05-02T23:52:32.586Z,100103.16
2023-05-02T23:55:02.243Z,100096.28
2023-05-02T23:57:45.862Z,100092.97
